Skyway, Washington
Current Conditions -  °F | °C
As of 3:53 PM on Sunday 25 Jan 2015 (Local Time) from KRNT Reporting Station
Clear Clear  
Wind Chill: 58°   Ceiling: Unl
Heat Index: 58°   Visibility: 10mi
Dew Point: 51°   Wind: 3mph
Humidity: 78%   Direction: 330°NNW
Pressure: 30.07"   Gusts: NA
Location:  47.4965°N, 122.251°W
Report Text: KRNT 252353Z 33003KT 10SM CLR 14/11 A3007 RMK AO2 SLP187 T01440106 10161 20100 56014 $
Loading
Personal Weather Stations






























Interactive Weather Map New forecast layout! Learn more

10-Day Weather Forecast

Advertisements
Track Severe Weather on mobile